createdAt,value
2017-09-06T00:00:40.760Z,19.96
2017-09-06T00:01:40.800Z,20
2017-09-06T00:02:40.477Z,19.94
2017-09-06T00:03:41.149Z,19.99
2017-09-06T00:04:40.864Z,19.94
2017-09-06T00:05:40.870Z,19.94
2017-09-06T00:06:40.888Z,20
2017-09-06T00:07:40.919Z,19.95
2017-09-06T00:08:41.279Z,19.86
2017-09-06T00:09:41.337Z,19.92
2017-09-06T00:10:40.988Z,19.94
2017-09-06T00:11:41.007Z,19.84
2017-09-06T00:12:41.353Z,19.88
2017-09-06T00:13:40.722Z,19.89
2017-09-06T00:14:41.395Z,19.91
2017-09-06T00:15:41.419Z,19.84
2017-09-06T00:16:41.123Z,19.91
2017-09-06T00:17:41.475Z,19.81
2017-09-06T00:18:41.163Z,19.84
2017-09-06T00:19:41.192Z,19.86
2017-09-06T00:20:41.210Z,19.85
2017-09-06T00:21:41.556Z,19.82
2017-09-06T00:22:41.577Z,19.7
2017-09-06T00:23:41.280Z,19.81
2017-09-06T00:24:41.294Z,19.7
2017-09-06T00:25:41.343Z,19.82
2017-09-06T00:26:41.668Z,19.71
2017-09-06T00:27:41.686Z,19.74
2017-09-06T00:28:41.717Z,19.79
2017-09-06T00:29:41.758Z,19.71
2017-09-06T00:30:41.433Z,19.77
2017-09-06T00:31:41.453Z,19.69
2017-09-06T00:32:41.916Z,19.79
2017-09-06T00:33:41.611Z,19.82
2017-09-06T00:34:41.632Z,19.79
2017-09-06T00:35:41.545Z,19.81
2017-09-06T00:36:41.984Z,19.77
2017-09-06T00:37:41.594Z,19.73
2017-09-06T00:38:41.614Z,19.82
2017-09-06T00:39:42.119Z,19.76
2017-09-06T00:40:42.087Z,19.73
2017-09-06T00:41:42.102Z,19.74
2017-09-06T00:42:41.803Z,19.79
2017-09-06T00:43:42.147Z,19.67
2017-09-06T00:44:42.092Z,19.7
2017-09-06T00:45:42.224Z,19.82
2017-09-06T00:46:41.950Z,19.7
2017-09-06T00:47:41.908Z,19.7
2017-09-06T00:48:41.937Z,19.74
2017-09-06T00:49:42.278Z,19.74
2017-09-06T00:50:42.401Z,19.74
2017-09-06T00:51:42.078Z,19.71
2017-09-06T00:52:42.084Z,19.73
2017-09-06T00:53:42.104Z,19.7
2017-09-06T00:54:42.426Z,19.71
2017-09-06T00:55:42.266Z,19.73
2017-09-06T00:56:42.181Z,19.64
2017-09-06T00:57:42.511Z,19.67
2017-09-06T00:58:42.530Z,19.71
2017-09-06T00:59:42.542Z,19.77
2017-09-06T01:00:42.619Z,19.74
2017-09-06T01:01:42.571Z,19.66
2017-09-06T01:02:42.620Z,19.7
2017-09-06T01:03:41.921Z,19.69
2017-09-06T01:04:42.262Z,19.71
2017-09-06T01:05:42.320Z,19.67
2017-09-06T01:06:41.956Z,19.69
2017-09-06T01:07:42.609Z,19.7
2017-09-06T01:08:42.377Z,19.58
2017-09-06T01:09:42.326Z,19.67
2017-09-06T01:10:42.376Z,19.71
2017-09-06T01:11:42.675Z,19.63
2017-09-06T01:12:42.384Z,19.63
2017-09-06T01:13:42.728Z,19.64
2017-09-06T01:14:42.745Z,19.64
2017-09-06T01:15:42.866Z,19.66
2017-09-06T01:16:42.465Z,19.63
2017-09-06T01:17:42.818Z,19.56
2017-09-06T01:18:42.834Z,19.56
2017-09-06T01:19:42.850Z,19.7
2017-09-06T01:20:42.879Z,19.69
2017-09-06T01:21:42.914Z,19.7
2017-09-06T01:22:42.596Z,19.64
2017-09-06T01:23:42.623Z,19.62
2017-09-06T01:24:42.963Z,19.62
2017-09-06T01:25:42.986Z,19.67
2017-09-06T01:26:42.369Z,19.63
2017-09-06T01:27:43.036Z,19.66
2017-09-06T01:28:42.734Z,19.66
2017-09-06T01:29:42.431Z,19.64
2017-09-06T01:30:43.107Z,19.64
2017-09-06T01:31:42.481Z,19.62
2017-09-06T01:32:42.822Z,19.66
2017-09-06T01:33:42.519Z,19.64
2017-09-06T01:34:43.189Z,19.64
2017-09-06T01:35:42.882Z,19.58
2017-09-06T01:36:43.236Z,19.59
2017-09-06T01:37:43.263Z,19.7
2017-09-06T01:38:42.957Z,19.64
2017-09-06T01:39:42.974Z,19.62
2017-09-06T01:40:43.325Z,19.55
2017-09-06T01:41:43.345Z,19.58
2017-09-06T01:42:43.370Z,19.63
2017-09-06T01:43:43.065Z,19.64
2017-09-06T01:44:43.091Z,19.66
2017-09-06T01:45:43.116Z,19.62
2017-09-06T01:46:43.134Z,19.64
2017-09-06T01:47:43.478Z,19.62
2017-09-06T01:48:43.176Z,19.71
2017-09-06T01:49:43.199Z,19.63
2017-09-06T01:50:43.477Z,19.56
2017-09-06T01:51:43.244Z,19.54
2017-09-06T01:52:43.882Z,19.59
2017-09-06T01:53:43.291Z,19.56
2017-09-06T01:54:43.316Z,19.71
2017-09-06T01:55:43.332Z,19.63
2017-09-06T01:56:43.680Z,19.69
2017-09-06T01:57:43.709Z,19.7
2017-09-06T01:58:43.723Z,19.56
2017-09-06T01:59:43.095Z,19.62
2017-09-06T02:00:43.774Z,19.59
2017-09-06T02:01:43.142Z,19.59
2017-09-06T02:02:43.166Z,19.63
2017-09-06T02:03:43.187Z,19.62
2017-09-06T02:04:43.531Z,19.56
2017-09-06T02:05:43.881Z,19.58
2017-09-06T02:06:43.578Z,19.62
2017-09-06T02:07:43.918Z,19.58
2017-09-06T02:08:43.617Z,19.56
2017-09-06T02:09:43.964Z,19.52
2017-09-06T02:10:43.989Z,19.58
2017-09-06T02:11:43.693Z,19.62
2017-09-06T02:12:44.037Z,19.66
2017-09-06T02:13:43.734Z,19.52
2017-09-06T02:14:44.078Z,19.59
2017-09-06T02:15:43.781Z,19.54
2017-09-06T02:16:44.182Z,19.54
2017-09-06T02:17:44.147Z,19.62
2017-09-06T02:18:43.522Z,19.62
2017-09-06T02:19:43.863Z,19.59
2017-09-06T02:20:43.564Z,19.59
2017-09-06T02:21:44.250Z,19.66
2017-09-06T02:22:43.932Z,19.58
2017-09-06T02:23:43.958Z,19.58
2017-09-06T02:24:44.298Z,19.58
2017-09-06T02:25:44.002Z,19.55
2017-09-06T02:26:44.237Z,19.62
2017-09-06T02:27:44.043Z,19.52
2017-09-06T02:28:44.067Z,19.59
2017-09-06T02:29:44.088Z,19.66
2017-09-06T02:30:44.443Z,19.58
2017-09-06T02:31:44.460Z,19.56
2017-09-06T02:32:43.831Z,19.58
2017-09-06T02:33:44.512Z,19.64
2017-09-06T02:34:44.519Z,19.67
2017-09-06T02:35:44.541Z,19.54
2017-09-06T02:36:44.280Z,19.58
2017-09-06T02:37:44.591Z,19.55
2017-09-06T02:38:44.613Z,19.62
2017-09-06T02:39:44.670Z,19.56
2017-09-06T02:40:44.330Z,19.63
2017-09-06T02:41:44.676Z,19.55
2017-09-06T02:42:44.712Z,19.59
2017-09-06T02:43:44.718Z,19.63
2017-09-06T02:44:44.419Z,19.59
2017-09-06T02:45:44.762Z,19.58
2017-09-06T02:46:44.463Z,19.62
2017-09-06T02:47:44.807Z,19.63
2017-09-06T02:48:44.190Z,19.58
2017-09-06T02:49:44.527Z,19.49
2017-09-06T02:50:44.880Z,19.62
2017-09-06T02:51:44.579Z,19.62
2017-09-06T02:52:44.270Z,19.62
2017-09-06T02:53:44.952Z,19.69
2017-09-06T02:54:44.638Z,19.54
2017-09-06T02:55:44.993Z,19.64
2017-09-06T02:56:45.013Z,19.55
2017-09-06T02:57:44.710Z,19.49
2017-09-06T02:58:44.739Z,19.67
2017-09-06T02:59:44.771Z,19.48
2017-09-06T03:00:45.098Z,19.62
2017-09-06T03:01:45.122Z,19.64
2017-09-06T03:02:45.139Z,19.66
2017-09-06T03:03:45.166Z,19.62
2017-09-06T03:04:44.539Z,19.56
2017-09-06T03:05:45.210Z,19.49
2017-09-06T03:06:44.906Z,19.55
2017-09-06T03:07:45.250Z,19.49
2017-09-06T03:08:45.274Z,19.62
2017-09-06T03:09:44.646Z,19.66
2017-09-06T03:10:45.325Z,19.62
2017-09-06T03:11:45.031Z,19.66
2017-09-06T03:12:45.371Z,19.56
2017-09-06T03:13:45.394Z,19.54
2017-09-06T03:14:45.079Z,19.48
2017-09-06T03:15:45.104Z,19.66
2017-09-06T03:16:45.450Z,19.63
2017-09-06T03:17:45.155Z,19.49
2017-09-06T03:18:45.170Z,19.69
2017-09-06T03:19:45.216Z,19.56
2017-09-06T03:20:45.541Z,19.51
2017-09-06T03:21:45.238Z,19.44
2017-09-06T03:22:45.594Z,19.55
2017-09-06T03:23:45.281Z,19.63
2017-09-06T03:24:45.304Z,19.47
2017-09-06T03:25:45.000Z,19.54
2017-09-06T03:26:45.677Z,19.64
2017-09-06T03:27:45.710Z,19.69
2017-09-06T03:28:45.388Z,19.54
2017-09-06T03:29:45.413Z,19.54
2017-09-06T03:30:45.758Z,19.56
2017-09-06T03:31:45.455Z,19.69
2017-09-06T03:32:45.759Z,19.58
2017-09-06T03:33:45.517Z,19.67
2017-09-06T03:34:45.523Z,19.49
2017-09-06T03:35:45.866Z,19.64
2017-09-06T03:36:45.570Z,19.56
2017-09-06T03:37:45.921Z,19.56
2017-09-06T03:38:45.615Z,19.52
2017-09-06T03:39:45.968Z,19.52
2017-09-06T03:40:45.995Z,19.49
2017-09-06T03:41:45.682Z,19.48
2017-09-06T03:42:45.700Z,19.52
2017-09-06T03:43:45.722Z,19.58
2017-09-06T03:44:45.743Z,19.51
2017-09-06T03:45:45.769Z,19.66
2017-09-06T03:46:46.107Z,19.52
2017-09-06T03:47:46.130Z,19.59
2017-09-06T03:48:46.153Z,19.51
2017-09-06T03:49:45.853Z,19.49
2017-09-06T03:50:45.876Z,19.56
2017-09-06T03:51:46.222Z,19.62
2017-09-06T03:52:45.927Z,19.45
2017-09-06T03:53:45.941Z,19.54
2017-09-06T03:54:45.966Z,19.52
2017-09-06T03:55:45.986Z,19.54
2017-09-06T03:56:46.007Z,19.52
2017-09-06T03:57:46.036Z,19.62
2017-09-06T03:58:46.048Z,19.54
2017-09-06T03:59:46.077Z,19.52
2017-09-06T04:00:46.101Z,19.58
2017-09-06T04:01:45.796Z,19.56
2017-09-06T04:02:46.143Z,19.48
2017-09-06T04:03:46.165Z,19.55
2017-09-06T04:04:46.186Z,19.59
2017-09-06T04:05:46.208Z,19.52
2017-09-06T04:06:46.230Z,19.52
2017-09-06T04:07:46.572Z,19.51
2017-09-06T04:08:46.607Z,19.45
2017-09-06T04:09:46.614Z,19.56
2017-09-06T04:10:46.322Z,19.56
2017-09-06T04:11:46.672Z,19.56
2017-09-06T04:12:46.370Z,19.49
2017-09-06T04:13:46.060Z,19.51
2017-09-06T04:14:46.086Z,19.56
2017-09-06T04:15:46.761Z,19.44
2017-09-06T04:16:46.460Z,19.55
2017-09-06T04:17:46.799Z,19.52
2017-09-06T04:18:46.821Z,19.51
2017-09-06T04:19:46.844Z,19.54
2017-09-06T04:20:46.545Z,19.52
2017-09-06T04:21:46.566Z,19.51
2017-09-06T04:22:46.906Z,19.56
2017-09-06T04:23:46.935Z,19.51
2017-09-06T04:24:46.947Z,19.54
2017-09-06T04:25:46.692Z,19.54
2017-09-06T04:26:46.346Z,19.47
2017-09-06T04:27:46.695Z,19.55
2017-09-06T04:28:46.715Z,19.45
2017-09-06T04:29:46.414Z,19.55
2017-09-06T04:30:46.799Z,19.56
2017-09-06T04:31:46.783Z,19.58
2017-09-06T04:32:46.799Z,19.49
2017-09-06T04:33:47.256Z,19.49
2017-09-06T04:34:46.521Z,19.41
2017-09-06T04:35:46.871Z,19.49
2017-09-06T04:36:46.892Z,19.37
2017-09-06T04:37:46.914Z,19.47
2017-09-06T04:38:46.938Z,19.49
2017-09-06T04:39:46.962Z,19.4
2017-09-06T04:40:46.985Z,19.45
2017-09-06T04:41:46.675Z,19.4
2017-09-06T04:42:47.436Z,19.4
2017-09-06T04:43:47.136Z,19.39
2017-09-06T04:44:47.434Z,19.47
2017-09-06T04:45:46.765Z,19.39
2017-09-06T04:46:47.131Z,19.4
2017-09-06T04:47:47.137Z,19.44
2017-09-06T04:48:47.478Z,19.41
2017-09-06T04:49:47.508Z,19.51
2017-09-06T04:50:47.529Z,19.4
2017-09-06T04:51:46.904Z,19.41
2017-09-06T04:52:47.294Z,19.39
2017-09-06T04:53:47.294Z,19.44
2017-09-06T04:54:47.302Z,19.48
2017-09-06T04:55:47.632Z,19.49
2017-09-06T04:56:47.412Z,19.39
2017-09-06T04:57:47.140Z,19.51
2017-09-06T04:58:47.444Z,19.41
2017-09-06T04:59:47.438Z,19.39
2017-09-06T05:00:47.761Z,19.45
2017-09-06T05:01:47.469Z,19.45
2017-09-06T05:02:47.461Z,19.48
2017-09-06T05:03:47.496Z,19.45
2017-09-06T05:04:47.273Z,19.58
2017-09-06T05:05:47.569Z,19.44
2017-09-06T05:06:47.883Z,19.44
2017-09-06T05:07:47.578Z,19.39
2017-09-06T05:08:47.346Z,19.55
2017-09-06T05:09:47.619Z,19.41
2017-09-06T05:10:47.970Z,19.44
2017-09-06T05:11:47.711Z,19.55
2017-09-06T05:12:48.009Z,19.56
2017-09-06T05:13:47.713Z,19.49
2017-09-06T05:14:47.411Z,19.55
2017-09-06T05:15:48.677Z,19.54
2017-09-06T05:16:47.772Z,19.51
2017-09-06T05:17:48.114Z,19.54
2017-09-06T05:18:47.812Z,19.52
2017-09-06T05:19:47.516Z,19.47
2017-09-06T05:20:47.862Z,19.48
2017-09-06T05:21:48.207Z,19.51
2017-09-06T05:22:48.230Z,19.52
2017-09-06T05:23:47.933Z,19.56
2017-09-06T05:24:47.956Z,19.48
2017-09-06T05:25:47.972Z,19.45
2017-09-06T05:26:47.668Z,19.54
2017-09-06T05:27:48.335Z,19.51
2017-09-06T05:28:48.363Z,19.52
2017-09-06T05:29:47.739Z,19.48
2017-09-06T05:30:48.074Z,19.52
2017-09-06T05:31:48.108Z,19.7
2017-09-06T05:32:47.814Z,19.51
2017-09-06T05:33:47.827Z,19.55
2017-09-06T05:34:48.167Z,19.55
2017-09-06T05:35:48.190Z,19.56
2017-09-06T05:36:47.890Z,19.48
2017-09-06T05:37:48.560Z,19.52
2017-09-06T05:38:48.582Z,19.58
2017-09-06T05:39:47.960Z,19.49
2017-09-06T05:40:48.298Z,19.66
2017-09-06T05:41:48.664Z,19.67
2017-09-06T05:42:48.672Z,19.69
2017-09-06T05:43:48.373Z,19.54
2017-09-06T05:44:48.712Z,19.67
2017-09-06T05:45:48.409Z,19.51
2017-09-06T05:46:48.106Z,19.63
2017-09-06T05:47:48.988Z,19.54
2017-09-06T05:48:48.152Z,19.63
2017-09-06T05:49:48.825Z,19.52
2017-09-06T05:50:48.516Z,19.59
2017-09-06T05:51:48.218Z,19.66
2017-09-06T05:52:48.571Z,19.63
2017-09-06T05:53:48.941Z,19.63
2017-09-06T05:54:48.931Z,19.67
2017-09-06T05:55:48.955Z,19.56
2017-09-06T05:56:48.653Z,19.58
2017-09-06T05:57:49.021Z,19.63
2017-09-06T05:58:48.696Z,19.55
2017-09-06T05:59:48.721Z,19.58
2017-09-06T06:00:48.743Z,19.58
2017-09-06T06:01:48.761Z,19.58
2017-09-06T06:02:49.178Z,19.59
2017-09-06T06:03:48.821Z,19.56
2017-09-06T06:04:48.502Z,19.58
2017-09-06T06:05:48.853Z,19.56
2017-09-06T06:06:48.558Z,19.55
2017-09-06T06:07:48.892Z,19.64
2017-09-06T06:08:49.004Z,19.63
2017-09-06T06:09:49.383Z,19.66
2017-09-06T06:10:49.600Z,19.67
2017-09-06T06:11:48.660Z,19.63
2017-09-06T06:12:49.537Z,19.66
2017-09-06T06:13:49.532Z,19.73
2017-09-06T06:14:49.534Z,19.74
2017-09-06T06:15:49.214Z,19.73
2017-09-06T06:16:49.214Z,19.81
2017-09-06T06:17:49.214Z,19.79
2017-09-06T06:18:49.355Z,19.77
2017-09-06T06:19:49.673Z,19.74
2017-09-06T06:20:49.673Z,19.74
2017-09-06T06:21:49.234Z,19.81
2017-09-06T06:22:49.686Z,19.82
2017-09-06T06:23:49.684Z,19.85
2017-09-06T06:24:49.683Z,19.85
2017-09-06T06:25:49.384Z,19.86
2017-09-06T06:26:49.396Z,19.95
2017-09-06T06:27:49.742Z,19.88
2017-09-06T06:28:49.228Z,19.92
2017-09-06T06:29:49.546Z,19.85
2017-09-06T06:30:49.774Z,19.88
2017-09-06T06:31:49.428Z,20.02
2017-09-06T06:32:49.540Z,19.92
2017-09-06T06:33:49.792Z,19.95
2017-09-06T06:34:49.367Z,20
2017-09-06T06:35:49.843Z,20
2017-09-06T06:36:49.869Z,20.09
2017-09-06T06:37:49.345Z,19.99
2017-09-06T06:38:49.910Z,19.99
2017-09-06T06:39:49.924Z,20.1
2017-09-06T06:40:49.378Z,20.03
2017-09-06T06:41:49.967Z,20.06
2017-09-06T06:42:50.009Z,20.1
2017-09-06T06:43:49.777Z,20.13
2017-09-06T06:44:49.714Z,20.18
2017-09-06T06:45:50.059Z,20.1
2017-09-06T06:46:49.438Z,20.21
2017-09-06T06:47:50.104Z,20.25
2017-09-06T06:48:50.132Z,20.24
2017-09-06T06:49:50.146Z,20.25
2017-09-06T06:50:50.173Z,20.29
2017-09-06T06:51:50.193Z,20.25
2017-09-06T06:52:49.566Z,20.25
2017-09-06T06:53:49.920Z,20.26
2017-09-06T06:54:49.610Z,20.26
2017-09-06T06:55:49.637Z,20.4
2017-09-06T06:56:50.302Z,20.39
2017-09-06T06:57:50.001Z,20.39
2017-09-06T06:58:50.346Z,20.37
2017-09-06T06:59:50.048Z,20.34
2017-09-06T07:00:50.402Z,20.29
2017-09-06T07:01:50.420Z,20.43
2017-09-06T07:02:49.790Z,20.44
2017-09-06T07:03:50.462Z,20.41
2017-09-06T07:04:49.835Z,20.37
2017-09-06T07:05:50.512Z,20.41
2017-09-06T07:06:50.200Z,20.44
2017-09-06T07:07:50.547Z,20.44
2017-09-06T07:08:50.573Z,20.44
2017-09-06T07:09:50.272Z,20.52
2017-09-06T07:10:49.968Z,20.55
2017-09-06T07:11:49.990Z,20.55
2017-09-06T07:12:50.017Z,20.63
2017-09-06T07:13:50.691Z,20.6
2017-09-06T07:14:50.709Z,20.6
2017-09-06T07:15:50.086Z,20.7
2017-09-06T07:16:50.104Z,20.6
2017-09-06T07:17:50.132Z,20.75
2017-09-06T07:18:50.482Z,20.69
2017-09-06T07:19:50.824Z,20.78
2017-09-06T07:20:50.530Z,20.75
2017-09-06T07:21:50.870Z,20.8
2017-09-06T07:22:50.240Z,20.78
2017-09-06T07:23:50.589Z,20.88
2017-09-06T07:24:50.616Z,20.85
2017-09-06T07:25:50.632Z,20.92
2017-09-06T07:26:50.653Z,20.92
2017-09-06T07:27:50.688Z,20.93
2017-09-06T07:28:50.695Z,20.96
2017-09-06T07:29:50.396Z,20.9
2017-09-06T07:30:51.108Z,21.02
2017-09-06T07:31:51.094Z,21.05
2017-09-06T07:32:50.789Z,21.05
2017-09-06T07:33:50.814Z,21.03
2017-09-06T07:34:51.158Z,21.14
2017-09-06T07:35:50.859Z,21.15
2017-09-06T07:36:51.210Z,21.15
2017-09-06T07:37:50.905Z,21.18
2017-09-06T07:38:50.926Z,21.27
2017-09-06T07:39:50.948Z,21.25
2017-09-06T07:40:50.968Z,21.24
2017-09-06T07:41:50.669Z,21.21
2017-09-06T07:42:51.133Z,21.27
2017-09-06T07:43:51.041Z,21.32
2017-09-06T07:44:51.487Z,21.39
2017-09-06T07:45:51.508Z,21.29
2017-09-06T07:46:50.785Z,21.37
2017-09-06T07:47:51.507Z,21.4
2017-09-06T07:48:51.157Z,21.39
2017-09-06T07:49:51.178Z,21.33
2017-09-06T07:50:51.304Z,21.37
2017-09-06T07:51:51.230Z,21.43
2017-09-06T07:52:51.244Z,21.48
2017-09-06T07:53:51.599Z,21.43
2017-09-06T07:54:51.087Z,21.46
2017-09-06T07:55:51.730Z,21.54
2017-09-06T07:56:51.240Z,21.48
2017-09-06T07:57:51.779Z,21.58
2017-09-06T07:58:51.898Z,21.48
2017-09-06T07:59:51.630Z,21.52
2017-09-06T08:00:51.622Z,21.58
2017-09-06T08:01:51.631Z,21.66
2017-09-06T08:02:51.640Z,21.6
2017-09-06T08:03:51.606Z,21.66
2017-09-06T08:04:51.952Z,21.67
2017-09-06T08:05:51.635Z,21.75
2017-09-06T08:06:52.090Z,21.69
2017-09-06T08:07:52.107Z,21.69
2017-09-06T08:08:51.696Z,21.79
2017-09-06T08:09:52.037Z,21.73
2017-09-06T08:10:52.096Z,21.89
2017-09-06T08:11:51.455Z,21.82
2017-09-06T08:12:51.780Z,21.91
2017-09-06T08:13:52.123Z,21.93
2017-09-06T08:14:52.141Z,21.95
2017-09-06T08:15:52.174Z,21.99
2017-09-06T08:16:51.798Z,21.99
2017-09-06T08:17:52.145Z,22.06
2017-09-06T08:18:51.851Z,22.06
2017-09-06T08:19:52.194Z,22.04
2017-09-06T08:20:51.893Z,22.15
2017-09-06T08:21:52.238Z,22.17
2017-09-06T08:22:52.261Z,22.18
2017-09-06T08:23:52.293Z,22.2
2017-09-06T08:24:52.317Z,22.23
2017-09-06T08:25:52.337Z,22.32
2017-09-06T08:26:51.711Z,22.25
2017-09-06T08:27:52.060Z,22.22
2017-09-06T08:28:52.412Z,22.3
2017-09-06T08:29:52.104Z,22.32
2017-09-06T08:30:52.448Z,22.35
2017-09-06T08:31:52.149Z,22.39
2017-09-06T08:32:52.174Z,22.35
2017-09-06T08:33:52.199Z,22.41
2017-09-06T08:34:52.226Z,22.47
2017-09-06T08:35:52.241Z,22.45
2017-09-06T08:36:52.617Z,22.53
2017-09-06T08:37:52.616Z,22.53
2017-09-06T08:38:52.642Z,22.54
2017-09-06T08:39:52.342Z,22.54
2017-09-06T08:40:52.361Z,22.57
2017-09-06T08:41:52.065Z,22.5
2017-09-06T08:42:52.413Z,22.5
2017-09-06T08:43:52.760Z,22.54
2017-09-06T08:44:52.463Z,22.57
2017-09-06T08:45:52.492Z,22.57
2017-09-06T08:46:52.514Z,22.66
2017-09-06T08:47:52.208Z,22.63
2017-09-06T08:48:52.237Z,22.7
2017-09-06T08:49:52.580Z,22.7
2017-09-06T08:50:52.605Z,22.72
2017-09-06T08:51:52.952Z,22.78
2017-09-06T08:52:52.648Z,22.88
2017-09-06T08:53:52.349Z,22.87
2017-09-06T08:54:53.017Z,22.91
2017-09-06T08:55:52.725Z,22.88
2017-09-06T08:56:53.070Z,22.94
2017-09-06T08:57:52.448Z,22.91
2017-09-06T08:58:52.788Z,22.98
2017-09-06T08:59:53.074Z,23.05
2017-09-06T09:00:52.841Z,23
2017-09-06T09:01:52.865Z,23.1
2017-09-06T09:02:53.207Z,23.09
2017-09-06T09:03:52.917Z,23.1
2017-09-06T09:04:52.937Z,23.13
2017-09-06T09:05:53.322Z,23.18
2017-09-06T09:06:52.986Z,23.21
2017-09-06T09:07:53.334Z,23.27
2017-09-06T09:08:53.033Z,23.23
2017-09-06T09:09:53.378Z,23.31
2017-09-06T09:10:53.402Z,23.27
2017-09-06T09:11:53.107Z,23.23
2017-09-06T09:12:53.461Z,23.37
2017-09-06T09:13:52.835Z,23.32
2017-09-06T09:14:53.178Z,23.31
2017-09-06T09:15:53.524Z,23.37
2017-09-06T09:16:53.551Z,23.36
2017-09-06T09:17:53.577Z,23.37
2017-09-06T09:18:53.272Z,23.44
2017-09-06T09:19:53.622Z,23.36
2017-09-06T09:20:53.325Z,23.47
2017-09-06T09:21:53.023Z,23.44
2017-09-06T09:22:53.368Z,23.51
2017-09-06T09:23:53.392Z,23.44
2017-09-06T09:24:53.431Z,23.44
2017-09-06T09:25:53.122Z,23.43
2017-09-06T09:26:53.791Z,23.44
2017-09-06T09:27:53.492Z,23.58
2017-09-06T09:28:53.844Z,23.55
2017-09-06T09:29:53.544Z,23.59
2017-09-06T09:30:53.598Z,23.58
2017-09-06T09:31:53.592Z,23.55
2017-09-06T09:32:53.615Z,23.59
2017-09-06T09:33:53.967Z,23.56
2017-09-06T09:34:53.986Z,23.56
2017-09-06T09:35:54.010Z,23.58
2017-09-06T09:36:53.713Z,23.59
2017-09-06T09:37:53.736Z,23.59
2017-09-06T09:38:53.441Z,23.62
2017-09-06T09:39:53.462Z,23.66
2017-09-06T09:40:53.810Z,23.73
2017-09-06T09:41:53.854Z,23.71
2017-09-06T09:42:53.860Z,23.63
2017-09-06T09:43:54.213Z,23.71
2017-09-06T09:44:54.238Z,23.71
2017-09-06T09:45:54.260Z,23.73
2017-09-06T09:46:54.282Z,23.71
2017-09-06T09:47:53.982Z,23.73
2017-09-06T09:48:54.005Z,23.73
2017-09-06T09:49:53.709Z,23.77
2017-09-06T09:50:54.381Z,23.8
2017-09-06T09:51:53.754Z,23.78
2017-09-06T09:52:54.112Z,23.8
2017-09-06T09:53:54.128Z,23.86
2017-09-06T09:54:54.157Z,23.87
2017-09-06T09:55:54.183Z,23.91
2017-09-06T09:56:54.531Z,23.92
2017-09-06T09:57:54.230Z,23.98
2017-09-06T09:58:54.575Z,24.06
2017-09-06T09:59:54.275Z,24.08
2017-09-06T10:00:54.629Z,24.16
2017-09-06T10:01:54.862Z,24.17
2017-09-06T10:02:54.682Z,24.23
2017-09-06T10:03:54.381Z,24.33
2017-09-06T10:04:54.722Z,24.51
2017-09-06T10:05:54.425Z,24.55
2017-09-06T10:06:54.456Z,24.57
2017-09-06T10:07:54.154Z,24.6
2017-09-06T10:08:54.861Z,24.69
2017-09-06T10:09:54.526Z,24.76
2017-09-06T10:10:54.229Z,24.73
2017-09-06T10:11:54.906Z,24.84
2017-09-06T10:12:54.599Z,24.88
2017-09-06T10:13:54.303Z,24.86
2017-09-06T10:14:54.647Z,24.85
2017-09-06T10:15:54.672Z,24.86
2017-09-06T10:16:54.701Z,24.84
2017-09-06T10:17:55.059Z,24.98
2017-09-06T10:18:55.081Z,24.95
2017-09-06T10:19:54.781Z,25.04
2017-09-06T10:20:54.477Z,24.92
2017-09-06T10:21:55.151Z,24.99
2017-09-06T10:22:54.857Z,24.98
2017-09-06T10:23:54.892Z,25.1
2017-09-06T10:24:54.901Z,25.06
2017-09-06T10:25:54.609Z,25.06
2017-09-06T10:26:55.279Z,25.03
2017-09-06T10:27:54.983Z,25.14
2017-09-06T10:28:55.005Z,25.06
2017-09-06T10:29:55.346Z,25.07
2017-09-06T10:30:55.060Z,25.11
2017-09-06T10:31:54.755Z,25.1
2017-09-06T10:32:55.109Z,25.17
2017-09-06T10:33:55.132Z,25.18
2017-09-06T10:34:55.162Z,25.11
2017-09-06T10:35:55.182Z,25.23
2017-09-06T10:36:55.209Z,25.17
2017-09-06T10:37:55.231Z,25.21
2017-09-06T10:38:55.255Z,25.16
2017-09-06T10:39:54.960Z,25.21
2017-09-06T10:40:55.631Z,25.18
2017-09-06T10:41:55.013Z,25.21
2017-09-06T10:42:55.361Z,25.18
2017-09-06T10:43:55.382Z,25.23
2017-09-06T10:44:55.750Z,25.29
2017-09-06T10:45:55.435Z,25.26
2017-09-06T10:46:55.461Z,25.29
2017-09-06T10:47:55.483Z,25.32
2017-09-06T10:48:55.513Z,25.33
2017-09-06T10:49:55.542Z,25.47
2017-09-06T10:50:55.569Z,25.47
2017-09-06T10:51:55.589Z,25.43
2017-09-06T10:52:55.949Z,25.47
2017-09-06T10:53:55.966Z,25.53
2017-09-06T10:54:55.346Z,25.51
2017-09-06T10:55:55.688Z,25.58
2017-09-06T10:56:55.395Z,25.51
2017-09-06T10:57:55.418Z,25.43
2017-09-06T10:58:55.448Z,25.58
2017-09-06T10:59:55.800Z,25.5
2017-09-06T11:00:56.146Z,25.51
2017-09-06T11:01:55.847Z,25.58
2017-09-06T11:02:55.872Z,25.54
2017-09-06T11:03:55.578Z,25.51
2017-09-06T11:04:55.923Z,25.54
2017-09-06T11:05:55.969Z,25.6
2017-09-06T11:06:55.979Z,25.65
2017-09-06T11:07:55.693Z,25.66
2017-09-06T11:08:56.031Z,25.69
2017-09-06T11:09:56.059Z,25.75
2017-09-06T11:10:56.080Z,25.73
2017-09-06T11:11:56.462Z,25.78
2017-09-06T11:12:56.130Z,25.78
2017-09-06T11:13:56.166Z,25.83
2017-09-06T11:14:56.188Z,25.8
2017-09-06T11:15:56.211Z,25.81
2017-09-06T11:16:56.560Z,25.81
2017-09-06T11:17:56.259Z,25.87
2017-09-06T11:18:55.961Z,25.85
2017-09-06T11:19:56.645Z,25.95
2017-09-06T11:20:56.021Z,25.9
2017-09-06T11:21:56.365Z,25.96
2017-09-06T11:22:56.395Z,25.95
2017-09-06T11:23:56.739Z,25.93
2017-09-06T11:24:56.123Z,25.95
2017-09-06T11:25:56.471Z,26
2017-09-06T11:26:56.823Z,25.99
2017-09-06T11:27:56.205Z,25.99
2017-09-06T11:28:56.228Z,25.98
2017-09-06T11:29:56.579Z,26.02
2017-09-06T11:30:56.287Z,26.05
2017-09-06T11:31:56.309Z,26.1
2017-09-06T11:32:56.661Z,26.15
2017-09-06T11:33:56.708Z,26.16
2017-09-06T11:34:56.707Z,26.26
2017-09-06T11:35:56.731Z,26.22
2017-09-06T11:36:57.081Z,26.21
2017-09-06T11:37:56.791Z,26.18
2017-09-06T11:38:57.134Z,26.23
2017-09-06T11:39:56.840Z,26.1
2017-09-06T11:40:56.865Z,26.19
2017-09-06T11:41:56.569Z,26.23
2017-09-06T11:42:57.247Z,26.23
2017-09-06T11:43:56.951Z,26.31
2017-09-06T11:44:56.651Z,26.31
2017-09-06T11:45:57.010Z,26.26
2017-09-06T11:46:57.349Z,26.33
2017-09-06T11:47:57.064Z,26.38
2017-09-06T11:48:57.081Z,26.37
2017-09-06T11:49:57.432Z,26.4
2017-09-06T11:50:57.131Z,26.33
2017-09-06T11:51:57.164Z,26.41
2017-09-06T11:52:57.191Z,26.37
2017-09-06T11:53:57.211Z,26.37
2017-09-06T11:54:56.915Z,26.38
2017-09-06T11:55:57.274Z,26.43
2017-09-06T11:56:56.970Z,26.44
2017-09-06T11:57:57.318Z,26.41
2017-09-06T11:58:57.341Z,26.47
2017-09-06T11:59:57.371Z,26.47
2017-09-06T12:00:57.721Z,26.41
2017-09-06T12:01:57.423Z,26.41
2017-09-06T12:02:57.782Z,26.29
2017-09-06T12:03:57.158Z,26.33
2017-09-06T12:04:57.837Z,26.26
2017-09-06T12:05:57.536Z,26.29
2017-09-06T12:06:57.235Z,26.36
2017-09-06T12:07:57.262Z,26.34
2017-09-06T12:08:57.608Z,26.22
2017-09-06T12:09:57.637Z,26.28
2017-09-06T12:10:57.346Z,26.23
2017-09-06T12:11:57.698Z,26.22
2017-09-06T12:12:57.721Z,26.19
2017-09-06T12:13:57.752Z,26.13
2017-09-06T12:14:58.090Z,26.25
2017-09-06T12:15:57.472Z,26.18
2017-09-06T12:16:57.502Z,26.19
2017-09-06T12:17:57.536Z,26.18
2017-09-06T12:18:57.556Z,26.22
2017-09-06T12:19:58.225Z,26.13
2017-09-06T12:20:57.610Z,26.13
2017-09-06T12:21:57.965Z,26.1
2017-09-06T12:22:57.985Z,26.06
2017-09-06T12:23:58.342Z,26.21
2017-09-06T12:24:58.365Z,26.07
2017-09-06T12:25:58.384Z,26.1
2017-09-06T12:26:58.417Z,26.05
2017-09-06T12:27:58.120Z,26.16
2017-09-06T12:28:58.143Z,26.06
2017-09-06T12:29:57.862Z,26.15
2017-09-06T12:30:58.202Z,26.09
2017-09-06T12:31:58.767Z,26.21
2017-09-06T12:32:57.929Z,26.26
2017-09-06T12:33:58.686Z,26.26
2017-09-06T12:34:58.304Z,26.38
2017-09-06T12:35:58.752Z,26.48
2017-09-06T12:36:58.363Z,26.48
2017-09-06T12:37:58.385Z,26.56
2017-09-06T12:38:58.417Z,26.62
2017-09-06T12:39:58.769Z,26.68
2017-09-06T12:40:58.146Z,26.6
2017-09-06T12:41:58.597Z,26.84
2017-09-06T12:42:58.535Z,26.83
2017-09-06T12:43:58.872Z,26.84
2017-09-06T12:44:58.664Z,26.93
2017-09-06T12:45:58.925Z,26.92
2017-09-06T12:46:58.719Z,26.96
2017-09-06T12:47:58.328Z,27.03
2017-09-06T12:48:58.737Z,27.07
2017-09-06T12:49:58.813Z,27.2
2017-09-06T12:50:58.807Z,27.21
2017-09-06T12:51:58.845Z,27.21
2017-09-06T12:52:59.115Z,27.25
2017-09-06T12:53:58.903Z,27.42
2017-09-06T12:54:58.612Z,27.33
2017-09-06T12:55:59.488Z,27.44